Aviation Digital Data Service (ADDS)

Output produced by METARs form (0838 UTC 19 April 2019)
found at http://www.aviationweather.gov/metar/data/
 
Forecast for: FOOL (LIBREVILLE/LEON , GA)
Text: TAF FOOL 190500Z 1906/2012 12006KT 9999 SCT010 BKN030
Forecast period: 0600 UTC 19 April 2019 to 1200 UTC 20 April 2019
Forecast type: FROM: standard forecast or significant change
Winds: from the ESE (120 degrees) at 7 MPH (6 knots; 3.1 m/s)
Visibility: 6 or more miles 10+ km)
Ceiling: 3000 feet AGL
Clouds: scattered clouds at 1000 feet AGL
broken clouds at 3000 feet AGL
Weather: no significant weather forecast for this period
Text: TEMPO 1915/1921 TS BKN012 FEW020CB
Forecast period: 1500 to 2100 UTC 19 April 2019
Forecast type: TEMPORARY: The following changes expected for less than half the time period
Visibility: missing
Ceiling: 1200 feet AGL
Clouds: broken clouds at 1200 feet AGL
few clouds at 2000 feet AGL
Weather: TS  (thunderstorm)
Text: TEMPO 1923/2004 4000 TSRA BKNOO6 OVC026
Forecast period: 2300 UTC 19 April 2019 to 0400 UTC 20 April 2019
Forecast type: TEMPORARY: The following changes expected for less than half the time period
Visibility: 2.49 miles (4.01 km)
Ceiling: 2600 feet AGL
Clouds: overcast cloud deck at 2600 feet AGL
Weather: TSRA  (rain associated with thunderstorm(s))